Detalii statie UNIVERSITATEA AGRICOLA IASI [0000198B]

Toti senzorii

Date Temperatura solului [C]Precipitatii [mm]Voltaj baterie [mV]HC Air temperature [C]HC Relative humidity [%]Punctul de roua [C]
medieminmaxsumaultimamedieminmaxmediemediemin
2019-06-15 18:00:00 22.8 22.6 23 0 7176 28.87 27.58 30.15 64.42 18.5 0
2019-06-15 19:00:00 22.6 22.6 22.8 0 7294 27.87 26.85 28.82 99.41 27.7 25.8
2019-06-15 20:00:00 22.4 22.3 22.6 0 6952 25.77 25.05 26.58 100 25.7 25
2019-06-15 21:00:00 22.2 22 22.5 0 6922 23.81 22.25 25.35 66.66 16.1 0
2019-06-15 22:00:00 22 21.9 22.2 0 6922 21.8 20.89 23.2 0 0 0
2019-06-15 23:00:00 21.8 21.6 22 0 6914 20.43 20.1 21.07 0 0 0
2019-06-16 00:00:00 21.5 21.1 21.7 0 6914 19.95 19.56 20.29 0 0 0
2019-06-16 01:00:00 21.3 21.2 21.5 0 6914 19.78 19.17 20.36 8.33 0
2019-06-16 02:00:00 21.1 20.9 21.4 0 6914 18.98 18.63 19.84 0 0 0
2019-06-16 03:00:00 20.9 20.8 21.2 0 6894 18.4 17.91 18.9 0 0 0
2019-06-16 04:00:00 20.7 20.5 21 0 6884 18.04 17.72 18.43 8.33 0
2019-06-16 05:00:00 20.5 20.4 20.9 0 6922 17.67 16.94 18.32 0 0 0
2019-06-16 06:00:00 20.3 20.2 20.5 0.2 7060 18.55 17.54 19.8 16.02 3 0
2019-06-16 07:00:00 20.4 20.4 20.5 0 7314 21.25 19.7 23.24 16.66 3.3 0
2019-06-16 08:00:00 20.5 20.4 20.6 0 7304 24.73 23.58 26.52 0 0 0
2019-06-16 09:00:00 20.7 20.5 21 0 7304 26.83 25.83 27.9 0 0 0
2019-06-16 10:00:00 20.8 20.6 21.2 0 7304 28.93 27.6 31.29 0 0 0
2019-06-16 11:00:00 21 20.9 21.3 0 7304 29.49 28.81 30.08 8.33 0
2019-06-16 12:00:00 21.2 21.1 21.5 0 7304 30.86 29.93 31.83 0 0 0
2019-06-16 13:00:00 21.5 21.4 21.7 0 7304 31.51 30.76 32.57 0 0 0
2019-06-16 14:00:00 21.6 21.5 21.7 0 7294 31.89 30.87 33 13.21 4.7 0
2019-06-16 15:00:00 21.7 21.6 21.9 0 7304 32.85 31.77 33.66 6.66 0
2019-06-16 16:00:00 21.9 21.8 22.1 0 7148 30.61 26.88 33.81 5.76 0
2019-06-16 17:00:00 21.8 21.5 22 0 7304 26.34 25.82 26.92 33.32 8.9 0
2019-06-16 18:00:00 21.9 21.8 22.1 0 7304 26.92 26.45 27.27 65.79 17.7 0
2019-06-16 19:00:00 21.9 21.8 22.2 0 7108 27.45 26.51 28.12 16.66 4.5 0
2019-06-16 20:00:00 21.8 21.7 22.1 0 6952 26.06 24.88 27.35 91.66 0
2019-06-16 21:00:00 21.8 21.7 22 0 6932 23.05 21.93 24.3 75 0
2019-06-16 22:00:00 21.6 21.3 21.8 0 6922 21.73 21.02 22.17 6.4 0
2019-06-16 23:00:00 21.5 21.4 21.7 0 6914 20.53 20.15 20.98 0 0 0
2019-06-17 00:00:00 21.3 21.3 21.5 0 6922 19.97 19.49 20.61 0 0 0
2019-06-17 01:00:00 21.1 20.9 21.4 0 6904 19.39 19.12 19.76 0 0 0
2019-06-17 02:00:00 20.9 20.7 21.2 0 6904 18.86 18.49 19.12 0 0 0
2019-06-17 03:00:00 20.7 20.5 21 0 6904 18.18 17.74 18.59 6.45 0
2019-06-17 04:00:00 20.5 20.4 20.6 0 6894 17.95 17.55 18.26 0 0 0
2019-06-17 05:00:00 20.3 20.2 20.5 0 6914 17.89 17.41 18.66 0 0 0
2019-06-17 06:00:00 20.3 20.3 20.4 0 7088 18.33 17.11 19.26 12.9 2.3 0
2019-06-17 07:00:00 20.4 20.3 20.5 0 7314 21.21 19.51 22.7 0 0 0
2019-06-17 08:00:00 20.5 20.4 20.6 0 7314 23.55 22.53 24.29 0 0 0
2019-06-17 09:00:00 20.6 20.5 21 0 7314 25.42 24.53 26.52 0 0 0
2019-06-17 10:00:00 20.9 20.8 21.2 0 7304 26.98 26.33 27.78 0 0 0
2019-06-17 11:00:00 21.2 21 21.4 0 7304 28.56 27.91 29.04 0 0 0
2019-06-17 12:00:00 21.4 21.2 21.7 0 7294 29.6 29.06 30.19 0 0 0
2019-06-17 13:00:00 21.6 21.5 21.8 0 7304 29.96 28.76 30.61 16.62 4.9 0
2019-06-17 14:00:00 21.8 21.7 22 0 7304 30.92 30.33 31.75 16.66 5.2 0
2019-06-17 15:00:00 22 22 22.1 0 7166 31.35 29.67 32.29 25 0